メインページ
METAR-TAF:

METAR-TAF

空港 :

トロント・ピアソン国際空港

トロント, オンタリオ州, カナダ

緯度: 43-40N, 経度: 079-38W, 海抜: 173m

現時点の気象観測

当レポートは44分前の11:00(UTC)に作成
の風 7kt
気温 -11°C
湿度 72%
気圧 1021 hPa
視程: 24.1km
高度3000ftの雲はほとんどない

METAR: CYYZ 231100Z 35007KT 15SM FEW030 M11/M15 A3014 RMK SC1 SC TR SLP220

時間: 06:44 (11:44 UTC)

予報

当レポートは6分前の11:38(UTC)に作成
予報は23日の 12時(UTC)から 24日の 18時(UTC)まで有効
北/北西の風 8kt
視程: 10km
高度3000ftの雲はほとんどない
23日の 13時(UTC)から 23日の 15時(UTC)まで徐々に
北西の風 12kt、最大22ktの突風を伴う
23日の 2300時(UTC)から
北西の風 10kt
視程: 10km
高度4000ftの千切れ雲あり
24日の 0400時(UTC)から
北/北西の風 8kt
視程: 10km
高度1500ftの雲は散在している
高度3000ftの千切れ雲あり
24日の 1600時(UTC)から
南/南東の風 7kt
視程: 10km
高度3000ftの雲は散在している
高度10000ftの千切れ雲あり

TAF: CYYZ 231138Z 2312/2418 34008KT P6SM FEW030 BECMG 2313/2315 32012G22KT FM232300 32010KT P6SM BKN040 FM240400 34008KT P6SM SCT015 BKN030 FM241600 15007KT P6SM SCT030 BKN100 RMK NXT FCST BY 231500Z

4,000以上の空港の気象観測と天気予報(METAR報とTAF報)

利用可能な観測所は地図上に黄色い丸と赤い丸で示す。

丸の上にカーソルを重ねると観測所名を参照できる。

次にクリックすると気象観測と天気予報を参照できる。

マップの切り替え:黒色「×」印の緑ボタンをクリックして拡大、「-」印の緑ボタンをクリックして縮小、緑色の三角印をクリックして隣りの地図に切り替え


METAR-TAF: